Time;durP1;ratioP1;P1;durP2;ratioP2;P2;SDS_P1;SDS_P2;PMS_P1;PMS_P2;Temp;Humidity;BMP_temperature;BMP_pressure;BME280_temperature;BME280_humidity;BME280_pressure;Samples;Min_cycle;Max_cycle;Signal;HPM_P1;HPM_P2
2022/02/12 00:02:14;;;;;;;23.40;10.60;;;1.80;99.90;;;;;;5008942;28;25055;-68
2022/02/12 00:04:40;;;;;;;24.80;9.68;;;1.80;99.90;;;;;;5008081;28;25043;-68
2022/02/12 00:07:05;;;;;;;22.25;10.15;;;1.80;99.90;;;;;;5008337;28;25076;-67
2022/02/12 00:09:31;;;;;;;21.13;10.23;;;1.80;99.90;;;;;;5014557;28;25062;-68
2022/02/12 00:11:57;;;;;;;27.65;11.27;;;1.80;99.90;;;;;;5023708;28;25098;-68
2022/02/12 00:14:22;;;;;;;27.67;11.15;;;1.70;99.90;;;;;;5035692;28;25083;-66
2022/02/12 00:16:48;;;;;;;25.40;11.07;;;1.70;99.90;;;;;;5027672;28;25065;-67
2022/02/12 00:19:14;;;;;;;29.35;10.07;;;1.70;99.90;;;;;;5037655;28;25105;-66
2022/02/12 00:21:39;;;;;;;26.85;10.07;;;1.70;99.90;;;;;;5035660;28;25060;-68
2022/02/12 00:24:06;;;;;;;22.30;10.60;;;1.70;99.90;;;;;;5010182;28;25125;-68
2022/02/12 00:26:31;;;;;;;26.77;10.02;;;1.70;99.90;;;;;;5014879;28;25063;-67
2022/02/12 00:28:57;;;;;;;30.63;10.15;;;1.70;99.90;;;;;;5012230;28;25101;-66
2022/02/12 00:31:22;;;;;;;25.92;9.52;;;1.70;99.90;;;;;;5021116;28;25078;-64
2022/02/12 00:33:48;;;;;;;26.42;10.13;;;1.70;99.90;;;;;;5031355;28;25101;-67
2022/02/12 00:36:13;;;;;;;23.02;9.73;;;1.70;99.90;;;;;;5031069;28;25057;-68
2022/02/12 00:38:39;;;;;;;29.02;9.25;;;1.70;99.90;;;;;;5030482;28;25051;-67
2022/02/12 00:41:05;;;;;;;19.38;9.23;;;1.60;99.90;;;;;;5031712;28;25135;-68
2022/02/12 00:43:31;;;;;;;23.80;9.15;;;1.60;99.90;;;;;;4998397;28;25071;-67
2022/02/12 00:45:57;;;;;;;22.75;7.82;;;1.70;99.90;;;;;;5008422;28;25080;-68
2022/02/12 00:48:23;;;;;;;25.80;9.10;;;1.70;99.90;;;;;;5013580;28;25156;-68
2022/02/12 00:50:48;;;;;;;33.78;9.65;;;1.70;99.90;;;;;;5024819;28;25269;-67
2022/02/12 00:53:14;;;;;;;22.27;7.80;;;1.70;99.90;;;;;;5012526;28;25091;-68
2022/02/12 00:55:40;;;;;;;27.48;8.07;;;1.70;99.90;;;;;;5012462;28;25137;-68
2022/02/12 00:58:05;;;;;;;24.10;8.43;;;1.70;99.90;;;;;;5012669;28;25059;-69
2022/02/12 01:00:33;;;;;;;24.60;7.85;;;1.70;99.90;;;;;;5012131;28;25149;-68
2022/02/12 01:02:59;;;;;;;22.48;7.65;;;1.80;99.90;;;;;;5012692;28;25077;-68
2022/02/12 01:05:24;;;;;;;29.15;8.15;;;1.70;99.90;;;;;;5019838;28;25134;-66
2022/02/12 01:07:50;;;;;;;31.60;7.85;;;1.70;99.90;;;;;;5010784;28;25077;-68
2022/02/12 01:10:15;;;;;;;24.42;7.82;;;1.70;99.90;;;;;;5010848;28;25110;-68
2022/02/12 01:12:41;;;;;;;33.47;8.63;;;1.70;99.90;;;;;;5022198;28;25122;-65
2022/02/12 01:15:07;;;;;;;30.27;7.40;;;1.80;99.90;;;;;;5031038;28;25146;-68
2022/02/12 01:17:35;;;;;;;24.10;9.45;;;1.80;99.90;;;;;;5030820;28;25078;-68
2022/02/12 01:20:00;;;;;;;35.28;8.57;;;1.70;99.90;;;;;;5030041;28;25147;-67
2022/02/12 01:22:26;;;;;;;23.75;7.65;;;1.70;99.90;;;;;;5030396;28;25086;-68
2022/02/12 01:24:52;;;;;;;22.83;7.05;;;1.70;99.90;;;;;;5010860;28;25079;-68
2022/02/12 01:27:18;;;;;;;23.58;7.60;;;1.70;99.90;;;;;;5012086;28;25088;-66
2022/02/12 01:29:43;;;;;;;28.70;7.70;;;1.70;99.90;;;;;;5015223;28;25104;-67
2022/02/12 01:32:09;;;;;;;29.58;7.78;;;1.70;99.90;;;;;;5021680;28;25080;-66
2022/02/12 01:34:36;;;;;;;17.77;7.55;;;1.70;99.90;;;;;;5021859;28;25083;-66
2022/02/12 01:37:04;;;;;;;25.83;7.30;;;1.70;99.90;;;;;;5022008;28;25087;-68
2022/02/12 01:39:30;;;;;;;29.27;7.85;;;1.70;99.90;;;;;;5024443;28;25055;-67
2022/02/12 01:41:56;;;;;;;30.98;7.65;;;1.70;99.90;;;;;;5023563;28;25168;-66
2022/02/12 01:44:33;;;;;;;23.83;7.70;;;1.70;99.90;;;;;;5034844;28;25082;-67
2022/02/12 01:47:00;;;;;;;30.27;8.35;;;1.70;99.90;;;;;;5022315;28;25078;-68
2022/02/12 01:49:26;;;;;;;34.53;8.32;;;1.80;99.90;;;;;;5022354;28;25138;-67
2022/02/12 01:51:53;;;;;;;26.85;7.72;;;1.80;99.90;;;;;;5013282;28;25145;-68
2022/02/12 01:54:19;;;;;;;24.67;8.32;;;1.80;99.90;;;;;;5014416;28;25142;-67
2022/02/12 01:56:46;;;;;;;29.63;8.57;;;1.80;99.90;;;;;;5015923;28;25069;-68
2022/02/12 01:59:12;;;;;;;26.73;8.73;;;1.80;99.90;;;;;;5008626;28;25109;-66
2022/02/12 02:01:37;;;;;;;25.63;8.52;;;1.80;99.90;;;;;;5008715;28;25064;-69
2022/02/12 02:04:03;;;;;;;22.55;8.15;;;1.70;99.90;;;;;;5007832;28;25104;-69
2022/02/12 02:06:29;;;;;;;24.75;8.75;;;1.70;99.90;;;;;;4999581;28;25070;-68
2022/02/12 02:08:54;;;;;;;23.58;8.68;;;1.70;99.90;;;;;;5008752;28;25067;-68
2022/02/12 02:11:21;;;;;;;33.78;9.07;;;1.70;99.90;;;;;;5027857;28;25099;-69
2022/02/12 02:13:47;;;;;;;22.23;8.90;;;1.70;99.90;;;;;;5026835;28;25147;-63
2022/02/12 02:16:14;;;;;;;29.73;8.32;;;1.60;99.90;;;;;;5001101;28;25145;-69
2022/02/12 02:18:40;;;;;;;21.67;8.05;;;1.70;99.90;;;;;;5027438;28;25064;-68
2022/02/12 02:21:07;;;;;;;29.70;9.07;;;1.70;99.90;;;;;;5021693;28;25137;-67
2022/02/12 02:23:36;;;;;;;31.38;9.88;;;1.70;99.90;;;;;;5012147;28;25138;-67
2022/02/12 02:26:03;;;;;;;26.63;8.23;;;1.70;99.90;;;;;;4989877;28;25079;-67
2022/02/12 02:28:28;;;;;;;25.95;8.65;;;1.70;99.90;;;;;;5005881;28;25151;-68
2022/02/12 02:30:54;;;;;;;23.45;8.50;;;1.70;99.90;;;;;;5010371;28;25062;-68
2022/02/12 02:33:20;;;;;;;30.92;8.88;;;1.70;99.90;;;;;;5013961;28;25090;-68
2022/02/12 02:35:46;;;;;;;28.77;8.90;;;1.80;99.90;;;;;;5007775;28;25063;-69
2022/02/12 02:38:14;;;;;;;20.63;8.10;;;1.80;99.90;;;;;;5013655;28;25121;-69
2022/02/12 02:40:42;;;;;;;20.15;7.38;;;1.80;99.90;;;;;;5012324;28;25057;-67
2022/02/12 02:43:09;;;;;;;25.60;8.15;;;1.80;99.90;;;;;;5010139;28;25065;-66
2022/02/12 02:45:35;;;;;;;25.48;7.80;;;1.80;99.90;;;;;;5009341;28;25087;-68
2022/02/12 02:48:02;;;;;;;28.15;7.65;;;1.80;99.90;;;;;;5008858;28;25105;-67
2022/02/12 02:56:02;;;;;;;25.88;7.75;;;1.70;99.90;;;;;;5013763;28;25085;-65
2022/02/12 02:58:36;;;;;;;27.95;7.97;;;1.70;99.90;;;;;;4994130;28;25100;-68
2022/02/12 03:01:04;;;;;;;35.42;8.95;;;1.70;99.90;;;;;;5007250;28;25115;-68
2022/02/12 03:03:30;;;;;;;25.33;7.63;;;1.60;99.90;;;;;;4990711;28;25057;-70
2022/02/12 03:05:57;;;;;;;21.45;8.20;;;1.60;99.90;;;;;;5005940;28;25068;-67
2022/02/12 03:08:23;;;;;;;26.95;8.18;;;1.60;99.90;;;;;;5023454;28;25117;-69
2022/02/12 03:10:49;;;;;;;24.75;7.85;;;1.60;99.90;;;;;;5027053;28;25106;-68
2022/02/12 03:13:15;;;;;;;26.73;7.60;;;1.60;99.90;;;;;;5026917;28;25075;-68
2022/02/12 03:15:40;;;;;;;26.95;8.80;;;1.60;99.90;;;;;;5027113;28;25102;-67
2022/02/12 03:18:07;;;;;;;26.05;8.13;;;1.60;99.90;;;;;;5024642;28;25131;-66
2022/02/12 03:20:33;;;;;;;28.13;9.10;;;1.50;99.90;;;;;;5023637;28;25103;-68
2022/02/12 03:22:59;;;;;;;29.80;8.05;;;1.60;99.90;;;;;;5018813;28;25093;-65
2022/02/12 03:25:25;;;;;;;19.45;8.32;;;1.60;99.90;;;;;;5007199;28;25140;-68
2022/02/12 03:28:02;;;;;;;29.42;8.30;;;1.50;99.90;;;;;;5008416;28;25117;-68
2022/02/12 03:30:30;;;;;;;42.75;9.68;;;1.50;99.90;;;;;;5007532;28;25105;-67
2022/02/12 03:32:55;;;;;;;29.30;8.30;;;1.50;99.90;;;;;;4990171;28;25084;-70
2022/02/12 03:35:26;;;;;;;37.47;8.73;;;1.60;99.90;;;;;;5007424;28;25158;-66
2022/02/12 03:37:53;;;;;;;29.40;9.02;;;1.60;99.90;;;;;;4992201;28;25119;-70
2022/02/12 03:40:19;;;;;;;20.83;8.48;;;1.60;99.90;;;;;;5006096;28;25177;-70
2022/02/12 03:42:45;;;;;;;24.83;8.25;;;1.70;99.90;;;;;;5008171;28;25073;-68
2022/02/12 03:45:11;;;;;;;25.60;8.90;;;1.60;99.90;;;;;;4989820;28;25107;-68
2022/02/12 03:47:36;;;;;;;34.53;9.57;;;1.60;99.90;;;;;;4989432;28;25132;-68
2022/02/12 03:50:04;;;;;;;26.08;9.43;;;1.50;99.90;;;;;;5009961;28;25144;-68
2022/02/12 03:52:29;;;;;;;22.30;7.97;;;1.50;99.90;;;;;;5011068;28;25087;-69
2022/02/12 03:54:55;;;;;;;28.77;8.65;;;1.50;99.90;;;;;;4991118;28;25119;-68
2022/02/12 03:57:21;;;;;;;25.20;9.02;;;1.50;99.90;;;;;;5009897;28;25102;-70
2022/02/12 03:59:46;;;;;;;32.28;9.43;;;1.50;99.90;;;;;;5023181;28;25072;-66
2022/02/12 04:02:12;;;;;;;25.00;9.85;;;1.50;99.90;;;;;;5029891;28;25082;-69
2022/02/12 04:04:38;;;;;;;31.88;9.48;;;1.50;99.90;;;;;;5009557;28;25068;-68
2022/02/12 04:07:03;;;;;;;29.65;9.27;;;1.50;99.90;;;;;;5007007;28;25100;-68
2022/02/12 04:09:30;;;;;;;30.20;9.38;;;1.50;99.90;;;;;;5011751;28;25092;-68
2022/02/12 04:11:55;;;;;;;24.75;8.85;;;1.50;99.90;;;;;;5011236;28;25128;-66
2022/02/12 04:14:21;;;;;;;32.05;9.18;;;1.40;99.90;;;;;;5009877;28;25081;-66
2022/02/12 04:16:46;;;;;;;30.08;9.43;;;1.50;99.90;;;;;;5010292;28;25144;-68
2022/02/12 04:19:12;;;;;;;26.65;8.82;;;1.50;99.90;;;;;;5007477;28;25154;-67
2022/02/12 04:21:38;;;;;;;24.30;9.60;;;1.50;99.90;;;;;;5015149;28;25064;-66
2022/02/12 04:24:04;;;;;;;26.92;10.35;;;1.60;99.90;;;;;;5002972;28;25094;-68
2022/02/12 04:26:30;;;;;;;30.15;8.88;;;1.60;99.90;;;;;;5025834;28;25081;-68
2022/02/12 04:28:55;;;;;;;34.33;10.77;;;1.50;99.90;;;;;;5025979;28;25058;-67
2022/02/12 04:31:23;;;;;;;27.42;10.20;;;1.40;99.90;;;;;;5006015;28;25068;-69
2022/02/12 04:33:51;;;;;;;28.98;10.20;;;1.40;99.90;;;;;;5006964;28;25088;-67
2022/02/12 04:36:17;;;;;;;25.95;9.57;;;1.40;99.90;;;;;;5005577;28;25068;-67
2022/02/12 04:38:43;;;;;;;31.05;10.13;;;1.40;99.90;;;;;;5005611;28;25063;-67
2022/02/12 04:41:08;;;;;;;27.45;9.40;;;1.30;99.90;;;;;;5005521;28;25132;-69
2022/02/12 04:43:36;;;;;;;28.23;10.38;;;1.30;99.90;;;;;;5013729;28;25069;-71
2022/02/12 04:46:02;;;;;;;29.75;10.43;;;1.30;99.90;;;;;;5019677;28;25079;-69
2022/02/12 04:48:28;;;;;;;37.75;10.38;;;1.30;99.90;;;;;;5027269;28;25113;-67
2022/02/12 04:50:54;;;;;;;21.92;9.43;;;1.30;99.90;;;;;;5029134;28;25076;-69
2022/02/12 04:53:19;;;;;;;25.30;10.48;;;1.30;99.90;;;;;;4997818;28;25065;-68
2022/02/12 04:55:45;;;;;;;38.13;11.23;;;1.20;99.90;;;;;;5008465;28;25057;-68
2022/02/12 04:58:10;;;;;;;37.22;10.50;;;1.30;99.90;;;;;;5006823;28;25060;-68
2022/02/12 05:00:36;;;;;;;40.17;11.30;;;1.20;99.90;;;;;;5007214;28;25050;-67
2022/02/12 05:03:01;;;;;;;29.05;9.35;;;1.20;99.90;;;;;;5009909;28;25140;-69
2022/02/12 05:05:27;;;;;;;31.38;9.82;;;1.20;99.90;;;;;;4996826;28;25064;-70
2022/02/12 05:07:53;;;;;;;30.77;10.20;;;1.20;99.90;;;;;;5020094;28;25117;-68
2022/02/12 05:10:19;;;;;;;26.05;9.98;;;1.20;99.90;;;;;;5007348;28;25059;-66
2022/02/12 05:12:44;;;;;;;32.63;10.52;;;1.20;99.90;;;;;;5024831;28;25078;-66
2022/02/12 05:15:10;;;;;;;27.40;9.55;;;1.30;99.90;;;;;;5033662;28;25076;-68
2022/02/12 05:17:35;;;;;;;28.48;10.00;;;1.20;99.90;;;;;;5031507;28;25082;-66
2022/02/12 05:20:01;;;;;;;27.83;10.98;;;1.20;99.90;;;;;;5034795;28;25081;-65
2022/02/12 05:22:27;;;;;;;26.52;11.10;;;1.30;99.90;;;;;;5031021;28;25085;-69
2022/02/12 05:24:52;;;;;;;23.50;10.15;;;1.20;99.90;;;;;;5015336;28;25072;-69
2022/02/12 05:27:18;;;;;;;27.88;10.80;;;1.20;99.90;;;;;;5008744;28;25073;-70
2022/02/12 05:29:44;;;;;;;31.23;11.02;;;1.20;99.90;;;;;;5008463;28;25107;-69
2022/02/12 05:32:10;;;;;;;36.47;10.35;;;1.20;99.90;;;;;;5010605;28;25097;-67
2022/02/12 05:34:35;;;;;;;33.17;10.98;;;1.20;99.90;;;;;;5007529;28;25112;-68
2022/02/12 05:37:01;;;;;;;30.80;12.50;;;1.20;99.90;;;;;;5006770;28;25066;-69
2022/02/12 05:39:26;;;;;;;33.90;11.18;;;1.20;99.90;;;;;;5002715;28;25075;-69
2022/02/12 05:41:52;;;;;;;34.65;11.15;;;1.20;99.90;;;;;;5007225;28;25064;-71
2022/02/12 05:44:17;;;;;;;27.98;10.40;;;1.20;99.90;;;;;;4990425;28;25124;-69
2022/02/12 05:46:43;;;;;;;32.75;10.27;;;1.20;99.90;;;;;;5008753;28;25145;-70
2022/02/12 05:49:09;;;;;;;37.97;11.60;;;1.20;99.90;;;;;;5008044;28;25136;-68
2022/02/12 05:51:34;;;;;;;30.92;10.23;;;1.20;99.90;;;;;;5008004;28;25138;-69
2022/02/12 05:54:02;;;;;;;28.83;11.05;;;1.20;99.90;;;;;;5001842;28;25066;-69
2022/02/12 05:56:28;;;;;;;29.20;11.43;;;1.20;99.90;;;;;;5027513;28;25151;-68
2022/02/12 05:58:55;;;;;;;34.75;11.30;;;1.20;99.90;;;;;;5008079;28;25122;-69
2022/02/12 06:01:20;;;;;;;27.45;11.90;;;1.20;99.90;;;;;;5003767;28;25058;-70
2022/02/12 06:03:46;;;;;;;33.90;11.15;;;1.10;99.90;;;;;;5001144;28;25120;-71
2022/02/12 06:06:12;;;;;;;26.95;11.27;;;1.10;99.90;;;;;;5008102;28;25058;-71
2022/02/12 06:08:37;;;;;;;35.33;12.52;;;1.10;99.90;;;;;;4999339;28;25111;-70
2022/02/12 06:11:04;;;;;;;38.60;11.52;;;1.10;99.90;;;;;;5003901;28;25128;-70
2022/02/12 06:13:30;;;;;;;29.65;11.00;;;1.10;99.90;;;;;;5003442;28;25051;-69
2022/02/12 06:15:56;;;;;;;27.20;10.63;;;1.10;99.90;;;;;;5003387;28;25061;-69
2022/02/12 06:18:22;;;;;;;24.52;9.68;;;1.10;99.90;;;;;;5003842;28;25149;-69
2022/02/12 06:20:47;;;;;;;34.03;10.80;;;1.10;99.90;;;;;;5006288;28;25097;-68
2022/02/12 06:23:13;;;;;;;33.50;11.73;;;1.10;99.90;;;;;;4980312;28;25105;-69
2022/02/12 06:25:38;;;;;;;23.77;10.40;;;1.10;99.90;;;;;;5008231;28;25064;-70
2022/02/12 06:28:04;;;;;;;27.77;10.90;;;1.10;99.90;;;;;;5014325;28;25062;-71
2022/02/12 06:30:31;;;;;;;34.75;10.25;;;1.10;99.90;;;;;;5005611;28;25053;-70
2022/02/12 06:32:59;;;;;;;37.28;11.63;;;1.10;99.90;;;;;;5005094;28;25106;-69
2022/02/12 06:35:26;;;;;;;25.25;10.70;;;1.10;99.90;;;;;;5004749;28;25110;-68
2022/02/12 06:37:52;;;;;;;31.23;10.95;;;1.00;99.90;;;;;;5021626;28;25071;-69
2022/02/12 06:40:18;;;;;;;26.27;10.98;;;1.00;99.90;;;;;;5005477;28;25057;-70
2022/02/12 06:42:43;;;;;;;26.35;10.35;;;1.00;99.90;;;;;;4997633;28;25183;-69
2022/02/12 06:45:09;;;;;;;28.17;11.02;;;1.00;99.90;;;;;;5011521;28;25050;-68
2022/02/12 06:47:37;;;;;;;39.60;11.20;;;1.00;99.90;;;;;;5008143;28;25069;-70
2022/02/12 06:50:03;;;;;;;38.08;10.77;;;1.00;99.90;;;;;;5007400;28;25107;-72
2022/02/12 06:52:28;;;;;;;27.15;11.10;;;1.10;99.90;;;;;;5008300;28;25177;-69
2022/02/12 06:54:56;;;;;;;30.75;11.00;;;1.00;99.90;;;;;;5008298;28;25152;-70
2022/02/12 06:57:21;;;;;;;34.35;10.40;;;1.10;99.90;;;;;;5007723;28;25066;-70
2022/02/12 06:59:47;;;;;;;32.00;11.10;;;1.00;99.90;;;;;;4999524;28;25131;-68
2022/02/12 07:02:12;;;;;;;32.38;10.68;;;1.10;99.90;;;;;;5009657;28;25059;-70
2022/02/12 07:04:38;;;;;;;28.90;9.80;;;1.10;99.90;;;;;;4981524;28;25060;-71
2022/02/12 07:07:04;;;;;;;30.45;11.35;;;1.00;99.90;;;;;;5008844;28;25058;-71
2022/02/12 07:09:29;;;;;;;40.97;11.95;;;1.00;99.90;;;;;;4990686;28;25154;-70
2022/02/12 07:11:55;;;;;;;36.45;12.02;;;1.00;99.90;;;;;;4999046;28;25104;-70
2022/02/12 07:14:20;;;;;;;36.50;11.50;;;1.00;99.90;;;;;;5021530;28;25125;-71
2022/02/12 07:16:46;;;;;;;31.60;11.73;;;0.90;99.90;;;;;;5015502;28;25074;-69
2022/02/12 07:19:12;;;;;;;30.77;11.35;;;0.90;99.90;;;;;;5004870;28;25090;-70
2022/02/12 07:21:38;;;;;;;24.23;10.07;;;0.90;99.90;;;;;;5022611;28;25123;-72
2022/02/12 07:24:04;;;;;;;31.90;10.27;;;1.00;99.90;;;;;;5006272;28;25073;-71
2022/02/12 07:26:29;;;;;;;36.40;11.05;;;1.00;99.90;;;;;;5022204;28;25081;-70
2022/02/12 07:28:55;;;;;;;28.10;11.32;;;1.00;99.90;;;;;;5008107;28;25048;-69
2022/02/12 07:31:20;;;;;;;23.05;9.88;;;1.00;99.90;;;;;;5007227;28;25069;-71
2022/02/12 07:33:46;;;;;;;28.83;10.05;;;1.00;99.90;;;;;;5015278;28;25080;-72
2022/02/12 07:36:12;;;;;;;31.08;10.50;;;1.00;99.90;;;;;;5021598;28;25075;-72
2022/02/12 07:38:38;;;;;;;27.77;9.10;;;1.10;99.90;;;;;;5024139;28;25066;-70
2022/02/12 07:41:06;;;;;;;34.20;11.00;;;1.00;99.90;;;;;;5014332;28;25061;-70
2022/02/12 07:43:32;;;;;;;29.30;9.20;;;1.10;99.90;;;;;;5006675;28;25075;-70
2022/02/12 07:45:59;;;;;;;32.33;10.15;;;1.00;99.90;;;;;;5010404;28;25125;-71
2022/02/12 07:48:25;;;;;;;23.98;10.30;;;1.10;99.90;;;;;;5000868;28;25055;-70
2022/02/12 07:50:53;;;;;;;26.75;10.32;;;1.10;99.90;;;;;;5012757;28;25132;-70
2022/02/12 07:53:19;;;;;;;26.13;10.25;;;1.10;99.90;;;;;;5008682;28;25093;-69
2022/02/12 07:55:44;;;;;;;36.08;12.35;;;1.10;99.90;;;;;;5004967;28;25085;-70
2022/02/12 07:58:10;;;;;;;27.08;9.93;;;1.10;99.90;;;;;;5005987;28;25147;-73
2022/02/12 08:00:36;;;;;;;26.45;9.98;;;1.20;99.90;;;;;;5009211;28;25075;-69
2022/02/12 08:03:02;;;;;;;19.52;9.85;;;1.20;99.90;;;;;;4990692;28;25125;-70
2022/02/12 08:05:28;;;;;;;28.50;11.13;;;1.20;99.90;;;;;;4986137;28;25129;-70
2022/02/12 08:07:53;;;;;;;32.42;9.60;;;1.20;99.90;;;;;;5005871;28;25143;-69
2022/02/12 08:13:03;;;;;;;26.58;10.00;;;1.10;99.90;;;;;;5011228;28;25068;-69
2022/02/12 08:15:29;;;;;;;27.13;10.43;;;1.20;99.90;;;;;;5011906;28;25071;-70
2022/02/12 08:17:55;;;;;;;30.25;10.82;;;1.20;99.90;;;;;;5008618;28;25059;-70
2022/02/12 08:20:21;;;;;;;23.35;9.57;;;1.30;99.90;;;;;;4989199;28;25169;-69
2022/02/12 08:22:47;;;;;;;33.35;10.10;;;1.30;99.90;;;;;;5011024;28;25106;-71
2022/02/12 08:25:13;;;;;;;22.50;9.52;;;1.40;99.90;;;;;;4991884;28;25108;-69
2022/02/12 08:27:39;;;;;;;25.52;9.48;;;1.40;99.90;;;;;;5007870;28;25107;-69
2022/02/12 08:30:07;;;;;;;30.58;8.75;;;1.50;99.90;;;;;;5003973;28;25109;-68
2022/02/12 08:32:32;;;;;;;24.13;8.60;;;1.60;99.90;;;;;;5005902;28;25056;-70
2022/02/12 08:34:58;;;;;;;31.63;9.32;;;1.60;99.90;;;;;;5009758;28;25054;-69
2022/02/12 08:37:23;;;;;;;32.60;10.40;;;1.70;99.90;;;;;;5015083;28;25084;-69
2022/02/12 08:39:49;;;;;;;25.42;9.52;;;1.80;99.90;;;;;;5005015;28;25074;-69
2022/02/12 08:42:16;;;;;;;32.53;9.85;;;1.80;99.90;;;;;;5004831;28;25111;-72
2022/02/12 08:44:41;;;;;;;23.48;9.00;;;1.90;99.90;;;;;;5010226;28;25075;-69
2022/02/12 08:47:11;;;;;;;25.08;8.15;;;2.00;99.90;;;;;;5011353;28;25136;-69
2022/02/12 08:49:37;;;;;;;21.63;7.88;;;2.00;99.90;;;;;;5021794;28;25505;-69
2022/02/12 08:52:03;;;;;;;26.90;8.73;;;2.10;99.90;;;;;;5024594;28;25073;-67
2022/02/12 08:54:29;;;;;;;25.45;8.00;;;2.20;99.90;;;;;;4994019;28;25136;-71
2022/02/12 08:56:56;;;;;;;20.80;7.78;;;2.30;99.90;;;;;;4995380;28;25160;-70
2022/02/12 08:59:21;;;;;;;26.05;8.27;;;2.30;99.90;;;;;;5025819;28;25055;-70
2022/02/12 09:01:47;;;;;;;26.17;8.52;;;2.40;99.90;;;;;;5000021;28;25098;-68
2022/02/12 09:04:12;;;;;;;27.08;8.65;;;2.40;99.90;;;;;;5028082;28;25143;-70
2022/02/12 09:06:40;;;;;;;18.48;6.97;;;2.50;99.90;;;;;;5020766;28;25072;-70
2022/02/12 09:09:10;;;;;;;22.77;7.65;;;2.60;99.90;;;;;;5027555;28;25081;-70
2022/02/12 09:11:40;;;;;;;31.08;8.18;;;2.70;99.90;;;;;;4997769;28;25056;-69
2022/02/12 09:14:06;;;;;;;21.30;7.38;;;2.70;99.90;;;;;;5030679;28;25095;-69
2022/02/12 09:16:32;;;;;;;27.05;8.07;;;2.80;99.90;;;;;;4994610;28;25094;-70
2022/02/12 09:18:58;;;;;;;21.50;6.85;;;2.90;99.90;;;;;;5026834;28;25120;-69
2022/02/12 09:21:24;;;;;;;21.95;7.00;;;2.90;99.90;;;;;;5012256;28;25048;-69
2022/02/12 09:23:50;;;;;;;22.27;6.95;;;2.90;99.90;;;;;;5013143;28;25073;-69
2022/02/12 09:26:19;;;;;;;16.58;7.03;;;2.90;99.90;;;;;;5012399;28;25130;-68
2022/02/12 09:28:45;;;;;;;17.23;6.88;;;2.90;99.90;;;;;;5012890;28;25163;-68
2022/02/12 09:31:11;;;;;;;23.27;7.57;;;3.00;99.90;;;;;;5011601;28;25076;-66
2022/02/12 09:33:36;;;;;;;26.00;7.45;;;3.10;99.90;;;;;;5011497;28;25081;-66
2022/02/12 09:36:03;;;;;;;18.27;6.75;;;3.20;99.90;;;;;;4995151;28;25058;-67
2022/02/12 09:38:29;;;;;;;16.65;6.80;;;3.30;99.90;;;;;;4992961;28;25150;-68
2022/02/12 09:40:55;;;;;;;17.88;7.20;;;3.30;99.90;;;;;;4998133;28;25096;-68
2022/02/12 09:43:24;;;;;;;20.45;6.35;;;3.30;99.90;;;;;;5011126;28;25130;-68
2022/02/12 09:46:19;;;;;;;23.15;6.80;;;3.50;99.90;;;;;;5016713;28;25133;-68
2022/02/12 09:48:46;;;;;;;17.75;6.82;;;3.60;99.90;;;;;;5010881;28;25134;-67
2022/02/12 09:51:13;;;;;;;19.00;7.05;;;3.70;99.90;;;;;;5016978;28;25072;-69
2022/02/12 09:53:39;;;;;;;22.27;6.93;;;3.70;99.90;;;;;;5032497;28;25099;-68
2022/02/12 09:56:05;;;;;;;18.10;6.18;;;3.80;99.90;;;;;;5011285;28;25096;-69
2022/02/12 09:58:31;;;;;;;25.02;6.85;;;3.90;99.90;;;;;;4987977;28;25149;-68
2022/02/12 10:00:57;;;;;;;18.20;6.45;;;4.00;99.90;;;;;;5009620;28;25135;-69
2022/02/12 10:03:22;;;;;;;21.67;7.00;;;4.10;99.90;;;;;;4991004;28;25077;-67
2022/02/12 10:05:51;;;;;;;28.35;6.63;;;4.10;99.90;;;;;;5010056;28;25100;-65
2022/02/12 10:08:17;;;;;;;21.13;6.03;;;4.10;99.90;;;;;;5012342;28;25142;-69
2022/02/12 10:10:45;;;;;;;20.52;7.45;;;4.20;99.90;;;;;;5009893;28;25120;-69
2022/02/12 10:13:26;;;;;;;16.77;6.07;;;4.30;99.90;;;;;;5013497;28;25120;-69
2022/02/12 10:15:56;;;;;;;26.95;6.90;;;4.40;99.90;;;;;;4997282;28;25061;-68
2022/02/12 10:18:24;;;;;;;14.48;6.57;;;4.40;99.90;;;;;;5011423;28;25123;-67
2022/02/12 10:20:54;;;;;;;23.95;6.38;;;4.50;99.90;;;;;;5020809;28;25070;-68
2022/02/12 10:23:27;;;;;;;13.95;6.32;;;4.60;99.90;;;;;;4998375;28;25065;-67
2022/02/12 10:26:02;;;;;;;17.88;6.38;;;4.60;99.90;;;;;;5026619;28;25127;-66
2022/02/12 10:28:37;;;;;;;20.95;5.78;;;4.70;99.90;;;;;;5004829;28;25146;-67
2022/02/12 10:31:03;;;;;;;14.32;5.70;;;4.70;99.50;;;;;;5011747;28;25077;-67
2022/02/12 10:33:30;;;;;;;18.52;6.20;;;4.80;99.60;;;;;;5009192;28;25152;-67
2022/02/12 10:36:01;;;;;;;17.60;5.55;;;4.90;99.70;;;;;;5005734;28;25130;-68
2022/02/12 10:38:29;;;;;;;18.38;5.38;;;5.00;99.40;;;;;;5010527;28;25090;-68
2022/02/12 10:41:14;;;;;;;28.98;6.15;;;5.20;99.40;;;;;;5004873;28;25072;-71
2022/02/12 10:43:41;;;;;;;17.02;6.60;;;5.30;99.00;;;;;;5010360;28;25082;-70
2022/02/12 10:46:08;;;;;;;17.30;6.38;;;5.40;98.50;;;;;;5010318;28;25077;-69
2022/02/12 10:48:40;;;;;;;17.88;6.00;;;5.90;98.40;;;;;;5006768;28;25051;-69
2022/02/12 10:51:17;;;;;;;15.25;5.43;;;6.00;98.10;;;;;;5006720;28;25070;-68
2022/02/12 10:54:06;;;;;;;16.48;5.93;;;6.10;97.50;;;;;;5005737;28;25101;-69
2022/02/12 10:56:46;;;;;;;14.95;5.25;;;6.30;97.20;;;;;;5007547;28;25068;-70
2022/02/12 10:59:13;;;;;;;11.48;4.22;;;6.60;95.60;;;;;;5005608;28;25112;-69
2022/02/12 11:01:39;;;;;;;15.05;4.70;;;6.70;94.90;;;;;;5008512;28;25071;-69
2022/02/12 11:04:08;;;;;;;17.38;5.03;;;6.90;95.00;;;;;;4992373;28;25115;-69
2022/02/12 11:06:36;;;;;;;16.58;4.93;;;7.40;95.00;;;;;;5009535;28;25104;-71
2022/02/12 11:09:05;;;;;;;15.85;5.50;;;7.50;93.30;;;;;;5013229;28;25067;-68
2022/02/12 11:11:31;;;;;;;11.07;4.32;;;7.30;93.00;;;;;;4990805;28;25098;-69
2022/02/12 11:14:01;;;;;;;17.52;4.78;;;7.20;92.80;;;;;;4990445;28;25053;-70
2022/02/12 11:16:29;;;;;;;14.18;4.35;;;7.30;93.20;;;;;;4999307;28;25073;-69
2022/02/12 11:18:56;;;;;;;14.50;4.85;;;7.30;92.60;;;;;;5008728;28;25051;-70
2022/02/12 11:21:24;;;;;;;16.90;5.63;;;7.20;92.70;;;;;;5008341;28;25084;-69
2022/02/12 11:24:03;;;;;;;13.82;4.70;;;7.30;93.00;;;;;;5008633;28;25067;-70
2022/02/12 11:26:41;;;;;;;14.48;4.43;;;7.40;92.50;;;;;;5004193;28;25062;-69
2022/02/12 11:29:30;;;;;;;18.27;4.57;;;7.50;92.10;;;;;;4999403;28;25143;-69
2022/02/12 11:32:11;;;;;;;18.15;4.60;;;7.40;91.90;;;;;;5005494;28;25063;-68
2022/02/12 11:34:44;;;;;;;11.88;4.13;;;7.50;91.40;;;;;;5006281;28;25064;-70
2022/02/12 11:37:18;;;;;;;20.55;5.07;;;7.50;92.20;;;;;;5014124;28;25072;-70
2022/02/12 11:40:14;;;;;;;16.90;4.88;;;7.70;91.70;;;;;;5016529;28;25059;-70
2022/02/12 11:43:06;;;;;;;13.73;4.38;;;7.70;91.50;;;;;;5012143;28;25069;-70
2022/02/12 11:45:38;;;;;;;20.75;4.93;;;8.20;91.40;;;;;;5004139;28;25081;-70
2022/02/12 11:48:17;;;;;;;14.68;4.68;;;8.20;91.30;;;;;;4989505;28;25058;-70
2022/02/12 11:51:03;;;;;;;13.15;4.57;;;8.50;90.20;;;;;;5006936;28;25060;-70
2022/02/12 11:53:46;;;;;;;12.20;4.38;;;8.50;90.00;;;;;;5007133;28;25059;-70
2022/02/12 11:56:18;;;;;;;15.85;4.13;;;8.60;90.70;;;;;;5006854;28;25090;-69
2022/02/12 11:58:44;;;;;;;10.63;3.83;;;8.80;88.70;;;;;;5022108;28;25110;-69
2022/02/12 12:01:22;;;;;;;11.52;3.78;;;8.90;88.20;;;;;;5018391;28;25126;-69
2022/02/12 12:04:11;;;;;;;15.85;4.10;;;9.00;86.00;;;;;;5023473;28;25067;-71
2022/02/12 12:06:38;;;;;;;12.95;4.35;;;8.90;83.20;;;;;;5013852;28;25069;-70
2022/02/12 12:09:06;;;;;;;17.00;4.30;;;8.80;80.10;;;;;;5021258;28;25068;-70
2022/02/12 12:11:32;;;;;;;13.88;3.70;;;8.70;80.20;;;;;;5006644;28;25060;-73
2022/02/12 12:14:02;;;;;;;13.57;3.72;;;8.70;79.90;;;;;;5006081;28;25060;-69
2022/02/12 12:16:33;;;;;;;14.07;3.88;;;8.80;80.40;;;;;;5013593;28;25066;-69
2022/02/12 12:19:01;;;;;;;11.20;4.32;;;8.80;78.30;;;;;;5007851;28;25156;-69
2022/02/12 12:21:29;;;;;;;11.93;4.38;;;8.70;78.50;;;;;;5016328;28;25081;-72
2022/02/12 12:24:00;;;;;;;13.85;3.92;;;8.90;78.90;;;;;;5032915;28;25076;-70
2022/02/12 12:26:37;;;;;;;11.70;3.50;;;9.10;78.20;;;;;;5025846;28;25063;-69
2022/02/12 12:32:13;;;;;;;8.18;3.65;;;9.60;76.20;;;;;;5030702;28;25071;-70
2022/02/12 12:35:00;;;;;;;16.35;3.88;;;9.80;74.00;;;;;;5007564;28;25058;-69
2022/02/12 12:37:27;;;;;;;14.60;3.53;;;9.80;73.70;;;;;;5028512;28;25137;-69
2022/02/12 12:39:59;;;;;;;10.27;3.65;;;10.00;71.10;;;;;;5023571;28;25116;-69
2022/02/12 12:42:26;;;;;;;6.57;3.40;;;9.80;69.70;;;;;;4996124;28;25076;-70
2022/02/12 12:45:03;;;;;;;10.45;3.40;;;9.40;69.20;;;;;;4991575;28;25056;-70
2022/02/12 12:47:29;;;;;;;8.70;3.78;;;9.40;68.90;;;;;;4996410;28;25099;-69
2022/02/12 12:49:57;;;;;;;13.95;3.47;;;9.70;69.70;;;;;;5028238;28;25058;-69
2022/02/12 12:52:26;;;;;;;8.00;3.00;;;9.70;69.80;;;;;;5029021;28;25056;-69
2022/02/12 12:54:57;;;;;;;8.48;2.63;;;9.70;69.50;;;;;;5027952;28;25075;-69
2022/02/12 12:57:29;;;;;;;12.27;4.13;;;9.90;69.40;;;;;;5028385;28;25075;-68